sensor_id;sensor_type;location;lat;lon;timestamp;temperature;humidity
20288;DHT22;10303;51.960;8.372;2023-01-15T00:01:28;8.80;99.90
20288;DHT22;10303;51.960;8.372;2023-01-15T00:03:57;9.00;99.90
20288;DHT22;10303;51.960;8.372;2023-01-15T00:06:25;8.80;99.90
20288;DHT22;10303;51.960;8.372;2023-01-15T00:08:53;9.00;99.90
20288;DHT22;10303;51.960;8.372;2023-01-15T00:11:19;8.80;99.90
20288;DHT22;10303;51.960;8.372;2023-01-15T00:13:47;8.70;99.90
20288;DHT22;10303;51.960;8.372;2023-01-15T00:16:18;8.90;99.90
20288;DHT22;10303;51.960;8.372;2023-01-15T00:18:53;8.70;99.90
20288;DHT22;10303;51.960;8.372;2023-01-15T00:21:21;8.20;99.90
20288;DHT22;10303;51.960;8.372;2023-01-15T00:23:48;8.00;99.90
20288;DHT22;10303;51.960;8.372;2023-01-15T00:26:33;8.10;99.90
20288;DHT22;10303;51.960;8.372;2023-01-15T00:29:19;7.80;99.90
20288;DHT22;10303;51.960;8.372;2023-01-15T00:31:58;7.70;99.90
20288;DHT22;10303;51.960;8.372;2023-01-15T00:34:27;7.70;99.90
20288;DHT22;10303;51.960;8.372;2023-01-15T00:36:53;7.40;99.90
20288;DHT22;10303;51.960;8.372;2023-01-15T00:39:19;7.30;99.90
20288;DHT22;10303;51.960;8.372;2023-01-15T00:41:46;7.20;99.90
20288;DHT22;10303;51.960;8.372;2023-01-15T00:44:12;7.10;99.90
20288;DHT22;10303;51.960;8.372;2023-01-15T00:46:38;7.10;99.90
20288;DHT22;10303;51.960;8.372;2023-01-15T00:49:04;6.90;99.90
20288;DHT22;10303;51.960;8.372;2023-01-15T00:51:30;6.60;99.90
20288;DHT22;10303;51.960;8.372;2023-01-15T00:53:56;6.60;99.90
20288;DHT22;10303;51.960;8.372;2023-01-15T00:56:22;6.40;99.90
20288;DHT22;10303;51.960;8.372;2023-01-15T00:58:48;6.60;99.90
20288;DHT22;10303;51.960;8.372;2023-01-15T01:01:14;6.70;99.90
20288;DHT22;10303;51.960;8.372;2023-01-15T01:03:40;6.80;99.90
20288;DHT22;10303;51.960;8.372;2023-01-15T01:06:07;6.70;99.90
20288;DHT22;10303;51.960;8.372;2023-01-15T01:08:34;6.30;99.90
20288;DHT22;10303;51.960;8.372;2023-01-15T01:11:05;6.40;99.90
20288;DHT22;10303;51.960;8.372;2023-01-15T01:13:36;6.50;99.90
20288;DHT22;10303;51.960;8.372;2023-01-15T01:16:04;6.70;99.90
20288;DHT22;10303;51.960;8.372;2023-01-15T01:18:45;6.90;99.90
20288;DHT22;10303;51.960;8.372;2023-01-15T01:21:11;6.80;99.90
20288;DHT22;10303;51.960;8.372;2023-01-15T01:23:37;7.20;99.90
20288;DHT22;10303;51.960;8.372;2023-01-15T01:26:02;7.30;99.90
20288;DHT22;10303;51.960;8.372;2023-01-15T01:28:28;7.50;99.90
20288;DHT22;10303;51.960;8.372;2023-01-15T01:30:54;7.70;99.90
20288;DHT22;10303;51.960;8.372;2023-01-15T01:33:20;7.80;99.90
20288;DHT22;10303;51.960;8.372;2023-01-15T01:35:50;8.00;99.90
20288;DHT22;10303;51.960;8.372;2023-01-15T01:38:16;8.20;99.90
20288;DHT22;10303;51.960;8.372;2023-01-15T01:40:42;8.40;99.90
20288;DHT22;10303;51.960;8.372;2023-01-15T01:43:19;8.50;99.90
20288;DHT22;10303;51.960;8.372;2023-01-15T01:45:48;8.60;99.90
20288;DHT22;10303;51.960;8.372;2023-01-15T01:48:17;8.70;99.90
20288;DHT22;10303;51.960;8.372;2023-01-15T01:50:47;8.70;99.90
20288;DHT22;10303;51.960;8.372;2023-01-15T01:53:22;9.00;99.90
20288;DHT22;10303;51.960;8.372;2023-01-15T01:55:52;8.90;99.90
20288;DHT22;10303;51.960;8.372;2023-01-15T01:58:19;8.90;99.90
20288;DHT22;10303;51.960;8.372;2023-01-15T02:00:48;9.00;99.90
20288;DHT22;10303;51.960;8.372;2023-01-15T02:03:17;9.20;99.90
20288;DHT22;10303;51.960;8.372;2023-01-15T02:05:53;9.00;99.90
20288;DHT22;10303;51.960;8.372;2023-01-15T02:08:23;9.00;99.90
20288;DHT22;10303;51.960;8.372;2023-01-15T02:10:53;9.00;99.90
20288;DHT22;10303;51.960;8.372;2023-01-15T02:13:38;9.10;99.90
20288;DHT22;10303;51.960;8.372;2023-01-15T02:16:25;9.20;99.90
20288;DHT22;10303;51.960;8.372;2023-01-15T02:24:36;9.40;99.90
20288;DHT22;10303;51.960;8.372;2023-01-15T02:27:22;9.40;99.90
20288;DHT22;10303;51.960;8.372;2023-01-15T02:29:56;9.40;99.90
20288;DHT22;10303;51.960;8.372;2023-01-15T02:35:21;9.40;99.90
20288;DHT22;10303;51.960;8.372;2023-01-15T02:37:55;9.50;99.90
20288;DHT22;10303;51.960;8.372;2023-01-15T02:40:27;9.60;99.90
20288;DHT22;10303;51.960;8.372;2023-01-15T02:42:56;9.50;99.90
20288;DHT22;10303;51.960;8.372;2023-01-15T02:45:28;9.60;99.90
20288;DHT22;10303;51.960;8.372;2023-01-15T02:48:09;9.50;99.90
20288;DHT22;10303;51.960;8.372;2023-01-15T02:50:58;9.50;99.90
20288;DHT22;10303;51.960;8.372;2023-01-15T02:53:32;9.50;99.90
20288;DHT22;10303;51.960;8.372;2023-01-15T02:56:06;9.40;99.90
20288;DHT22;10303;51.960;8.372;2023-01-15T02:58:44;9.50;99.90
20288;DHT22;10303;51.960;8.372;2023-01-15T03:01:17;9.50;99.90
20288;DHT22;10303;51.960;8.372;2023-01-15T03:04:19;9.50;99.90
20288;DHT22;10303;51.960;8.372;2023-01-15T03:07:15;9.60;99.90
20288;DHT22;10303;51.960;8.372;2023-01-15T03:09:48;9.60;99.90
20288;DHT22;10303;51.960;8.372;2023-01-15T03:18:27;9.60;99.90
20288;DHT22;10303;51.960;8.372;2023-01-15T03:20:59;9.60;99.90
20288;DHT22;10303;51.960;8.372;2023-01-15T03:23:30;9.60;99.90
20288;DHT22;10303;51.960;8.372;2023-01-15T03:26:01;9.50;99.90
20288;DHT22;10303;51.960;8.372;2023-01-15T03:28:30;9.40;99.90
20288;DHT22;10303;51.960;8.372;2023-01-15T03:31:00;9.30;99.90
20288;DHT22;10303;51.960;8.372;2023-01-15T03:33:28;9.30;99.90
20288;DHT22;10303;51.960;8.372;2023-01-15T03:35:58;9.30;99.90
20288;DHT22;10303;51.960;8.372;2023-01-15T03:38:51;9.40;99.90
20288;DHT22;10303;51.960;8.372;2023-01-15T03:41:46;9.50;99.90
20288;DHT22;10303;51.960;8.372;2023-01-15T03:44:43;9.50;99.90
20288;DHT22;10303;51.960;8.372;2023-01-15T03:53:25;9.60;99.90
20288;DHT22;10303;51.960;8.372;2023-01-15T03:59:01;9.70;99.90
20288;DHT22;10303;51.960;8.372;2023-01-15T04:01:51;9.70;99.90
20288;DHT22;10303;51.960;8.372;2023-01-15T04:04:22;9.70;99.90
20288;DHT22;10303;51.960;8.372;2023-01-15T04:06:52;9.80;99.90
20288;DHT22;10303;51.960;8.372;2023-01-15T04:09:20;9.70;99.90
20288;DHT22;10303;51.960;8.372;2023-01-15T04:11:50;9.80;99.90
20288;DHT22;10303;51.960;8.372;2023-01-15T04:14:16;9.80;99.90
20288;DHT22;10303;51.960;8.372;2023-01-15T04:16:46;9.80;99.90
20288;DHT22;10303;51.960;8.372;2023-01-15T04:19:12;9.90;99.90
20288;DHT22;10303;51.960;8.372;2023-01-15T04:21:47;9.80;99.90
20288;DHT22;10303;51.960;8.372;2023-01-15T04:24:13;10.00;99.90
20288;DHT22;10303;51.960;8.372;2023-01-15T04:26:39;9.80;99.90
20288;DHT22;10303;51.960;8.372;2023-01-15T04:29:05;9.90;99.90
20288;DHT22;10303;51.960;8.372;2023-01-15T04:31:31;9.80;99.90
20288;DHT22;10303;51.960;8.372;2023-01-15T04:33:58;9.80;99.90
20288;DHT22;10303;51.960;8.372;2023-01-15T04:36:24;9.90;99.90
20288;DHT22;10303;51.960;8.372;2023-01-15T04:38:51;9.80;99.90
20288;DHT22;10303;51.960;8.372;2023-01-15T04:41:19;9.80;99.90
20288;DHT22;10303;51.960;8.372;2023-01-15T04:44:04;9.90;99.90
20288;DHT22;10303;51.960;8.372;2023-01-15T04:46:34;9.90;99.90
20288;DHT22;10303;51.960;8.372;2023-01-15T04:49:07;10.00;99.90
20288;DHT22;10303;51.960;8.372;2023-01-15T04:51:35;10.00;99.90
20288;DHT22;10303;51.960;8.372;2023-01-15T04:54:03;9.90;99.90
20288;DHT22;10303;51.960;8.372;2023-01-15T04:56:30;9.90;99.90
20288;DHT22;10303;51.960;8.372;2023-01-15T04:58:59;9.90;99.90
20288;DHT22;10303;51.960;8.372;2023-01-15T05:01:26;9.90;99.90
20288;DHT22;10303;51.960;8.372;2023-01-15T05:03:52;9.90;99.90
20288;DHT22;10303;51.960;8.372;2023-01-15T05:06:18;10.00;99.90
20288;DHT22;10303;51.960;8.372;2023-01-15T05:08:45;10.00;99.90
20288;DHT22;10303;51.960;8.372;2023-01-15T05:11:11;9.90;99.90
20288;DHT22;10303;51.960;8.372;2023-01-15T05:13:37;9.80;99.90
20288;DHT22;10303;51.960;8.372;2023-01-15T05:16:15;9.90;99.90
20288;DHT22;10303;51.960;8.372;2023-01-15T05:18:43;9.90;99.90
20288;DHT22;10303;51.960;8.372;2023-01-15T05:21:22;9.90;99.90
20288;DHT22;10303;51.960;8.372;2023-01-15T05:23:52;10.00;99.90
20288;DHT22;10303;51.960;8.372;2023-01-15T05:26:20;10.00;99.90
20288;DHT22;10303;51.960;8.372;2023-01-15T05:28:47;9.70;99.90
20288;DHT22;10303;51.960;8.372;2023-01-15T05:31:15;9.80;99.90
20288;DHT22;10303;51.960;8.372;2023-01-15T05:33:44;9.70;99.90
20288;DHT22;10303;51.960;8.372;2023-01-15T05:36:15;9.80;99.90
20288;DHT22;10303;51.960;8.372;2023-01-15T05:38:43;9.80;99.90
20288;DHT22;10303;51.960;8.372;2023-01-15T05:41:12;9.80;99.90
20288;DHT22;10303;51.960;8.372;2023-01-15T05:44:07;9.90;99.90
20288;DHT22;10303;51.960;8.372;2023-01-15T05:46:36;9.80;99.90
20288;DHT22;10303;51.960;8.372;2023-01-15T05:49:06;9.80;99.90
20288;DHT22;10303;51.960;8.372;2023-01-15T05:51:34;9.80;99.90
20288;DHT22;10303;51.960;8.372;2023-01-15T05:54:02;9.80;99.90
20288;DHT22;10303;51.960;8.372;2023-01-15T05:56:28;9.70;99.90
20288;DHT22;10303;51.960;8.372;2023-01-15T05:58:54;9.70;99.90
20288;DHT22;10303;51.960;8.372;2023-01-15T06:01:21;9.70;99.90
20288;DHT22;10303;51.960;8.372;2023-01-15T06:03:48;9.70;99.90
20288;DHT22;10303;51.960;8.372;2023-01-15T06:06:15;9.80;99.90
20288;DHT22;10303;51.960;8.372;2023-01-15T06:08:42;9.70;99.90
20288;DHT22;10303;51.960;8.372;2023-01-15T06:11:09;9.70;99.90
20288;DHT22;10303;51.960;8.372;2023-01-15T06:13:36;9.80;99.90
20288;DHT22;10303;51.960;8.372;2023-01-15T06:16:05;10.00;99.90
20288;DHT22;10303;51.960;8.372;2023-01-15T06:18:31;9.50;99.90
20288;DHT22;10303;51.960;8.372;2023-01-15T06:21:02;9.60;99.90
20288;DHT22;10303;51.960;8.372;2023-01-15T06:23:29;9.70;99.90
20288;DHT22;10303;51.960;8.372;2023-01-15T06:25:59;9.60;99.90
20288;DHT22;10303;51.960;8.372;2023-01-15T06:28:26;9.80;99.90
20288;DHT22;10303;51.960;8.372;2023-01-15T06:30:52;9.80;99.90
20288;DHT22;10303;51.960;8.372;2023-01-15T06:33:19;9.70;99.90
20288;DHT22;10303;51.960;8.372;2023-01-15T06:35:45;9.70;99.90
20288;DHT22;10303;51.960;8.372;2023-01-15T06:38:11;9.80;99.90
20288;DHT22;10303;51.960;8.372;2023-01-15T06:40:37;9.70;99.90
20288;DHT22;10303;51.960;8.372;2023-01-15T06:43:03;9.80;99.90
20288;DHT22;10303;51.960;8.372;2023-01-15T06:45:47;9.90;99.90
20288;DHT22;10303;51.960;8.372;2023-01-15T06:48:32;9.90;99.90
20288;DHT22;10303;51.960;8.372;2023-01-15T06:50:59;9.90;99.90
20288;DHT22;10303;51.960;8.372;2023-01-15T06:53:25;9.90;99.90
20288;DHT22;10303;51.960;8.372;2023-01-15T06:55:51;9.80;99.90
20288;DHT22;10303;51.960;8.372;2023-01-15T06:58:17;9.80;99.90
20288;DHT22;10303;51.960;8.372;2023-01-15T07:00:46;9.80;99.90
20288;DHT22;10303;51.960;8.372;2023-01-15T07:03:19;9.70;99.90
20288;DHT22;10303;51.960;8.372;2023-01-15T07:05:45;9.70;99.90
20288;DHT22;10303;51.960;8.372;2023-01-15T07:08:11;9.80;99.90
20288;DHT22;10303;51.960;8.372;2023-01-15T07:10:37;9.90;99.90
20288;DHT22;10303;51.960;8.372;2023-01-15T07:13:03;9.90;99.90
20288;DHT22;10303;51.960;8.372;2023-01-15T07:15:29;9.90;99.90
20288;DHT22;10303;51.960;8.372;2023-01-15T07:17:55;9.90;99.90
20288;DHT22;10303;51.960;8.372;2023-01-15T07:20:22;9.90;99.90
20288;DHT22;10303;51.960;8.372;2023-01-15T07:22:51;9.90;99.90
20288;DHT22;10303;51.960;8.372;2023-01-15T07:25:17;9.90;99.90
20288;DHT22;10303;51.960;8.372;2023-01-15T07:27:45;9.70;99.90
20288;DHT22;10303;51.960;8.372;2023-01-15T07:30:12;9.70;99.90
20288;DHT22;10303;51.960;8.372;2023-01-15T07:32:39;9.80;99.90
20288;DHT22;10303;51.960;8.372;2023-01-15T07:35:06;9.80;99.90
20288;DHT22;10303;51.960;8.372;2023-01-15T07:37:32;9.80;99.90
20288;DHT22;10303;51.960;8.372;2023-01-15T07:39:58;9.70;99.90
20288;DHT22;10303;51.960;8.372;2023-01-15T07:42:24;9.70;99.90
20288;DHT22;10303;51.960;8.372;2023-01-15T07:45:12;9.80;99.90
20288;DHT22;10303;51.960;8.372;2023-01-15T07:47:57;9.80;99.90
20288;DHT22;10303;51.960;8.372;2023-01-15T07:50:41;9.80;99.90
20288;DHT22;10303;51.960;8.372;2023-01-15T07:53:07;9.90;99.90
20288;DHT22;10303;51.960;8.372;2023-01-15T07:55:34;9.70;99.90
20288;DHT22;10303;51.960;8.372;2023-01-15T07:58:02;9.70;99.90
20288;DHT22;10303;51.960;8.372;2023-01-15T08:00:28;9.80;99.90
20288;DHT22;10303;51.960;8.372;2023-01-15T08:02:54;9.80;99.90
20288;DHT22;10303;51.960;8.372;2023-01-15T08:05:20;9.80;99.90
20288;DHT22;10303;51.960;8.372;2023-01-15T08:07:46;9.70;99.90
20288;DHT22;10303;51.960;8.372;2023-01-15T08:10:13;9.70;99.90
20288;DHT22;10303;51.960;8.372;2023-01-15T08:12:41;9.60;99.90
20288;DHT22;10303;51.960;8.372;2023-01-15T08:15:26;9.70;99.90
20288;DHT22;10303;51.960;8.372;2023-01-15T08:17:56;9.60;99.90
20288;DHT22;10303;51.960;8.372;2023-01-15T08:20:24;9.60;99.90
20288;DHT22;10303;51.960;8.372;2023-01-15T08:22:51;9.80;99.90
20288;DHT22;10303;51.960;8.372;2023-01-15T08:25:20;9.70;99.90
20288;DHT22;10303;51.960;8.372;2023-01-15T08:27:47;9.70;99.90
20288;DHT22;10303;51.960;8.372;2023-01-15T08:30:16;9.80;99.90
20288;DHT22;10303;51.960;8.372;2023-01-15T08:32:45;9.80;99.90
20288;DHT22;10303;51.960;8.372;2023-01-15T08:35:11;9.70;99.90
20288;DHT22;10303;51.960;8.372;2023-01-15T08:37:39;9.60;99.90
20288;DHT22;10303;51.960;8.372;2023-01-15T08:40:06;9.50;99.90
20288;DHT22;10303;51.960;8.372;2023-01-15T08:42:34;9.20;99.90
20288;DHT22;10303;51.960;8.372;2023-01-15T08:45:00;9.30;99.90
20288;DHT22;10303;51.960;8.372;2023-01-15T08:47:25;9.30;99.90
20288;DHT22;10303;51.960;8.372;2023-01-15T08:49:51;9.30;99.90
20288;DHT22;10303;51.960;8.372;2023-01-15T08:52:17;9.10;99.90
20288;DHT22;10303;51.960;8.372;2023-01-15T08:54:43;9.00;99.90
20288;DHT22;10303;51.960;8.372;2023-01-15T08:57:09;9.00;99.90
20288;DHT22;10303;51.960;8.372;2023-01-15T08:59:37;8.80;99.90
20288;DHT22;10303;51.960;8.372;2023-01-15T09:02:03;8.80;99.90
20288;DHT22;10303;51.960;8.372;2023-01-15T09:04:28;8.90;99.90
20288;DHT22;10303;51.960;8.372;2023-01-15T09:06:54;8.80;99.90
20288;DHT22;10303;51.960;8.372;2023-01-15T09:09:20;8.90;99.90
20288;DHT22;10303;51.960;8.372;2023-01-15T09:11:46;8.90;99.90
20288;DHT22;10303;51.960;8.372;2023-01-15T09:14:14;8.80;99.90
20288;DHT22;10303;51.960;8.372;2023-01-15T09:16:40;9.00;99.90
20288;DHT22;10303;51.960;8.372;2023-01-15T09:19:06;8.90;99.90
20288;DHT22;10303;51.960;8.372;2023-01-15T09:21:34;8.90;99.90
20288;DHT22;10303;51.960;8.372;2023-01-15T09:24:00;8.80;99.90
20288;DHT22;10303;51.960;8.372;2023-01-15T09:26:35;8.80;99.90
20288;DHT22;10303;51.960;8.372;2023-01-15T09:29:04;8.90;99.90
20288;DHT22;10303;51.960;8.372;2023-01-15T09:31:30;8.90;99.90
20288;DHT22;10303;51.960;8.372;2023-01-15T09:33:57;9.00;99.90
20288;DHT22;10303;51.960;8.372;2023-01-15T09:36:27;9.10;99.90
20288;DHT22;10303;51.960;8.372;2023-01-15T09:38:56;9.20;99.90
20288;DHT22;10303;51.960;8.372;2023-01-15T09:41:24;9.30;99.90
20288;DHT22;10303;51.960;8.372;2023-01-15T09:44:32;9.30;99.90
20288;DHT22;10303;51.960;8.372;2023-01-15T09:47:17;9.20;99.90
20288;DHT22;10303;51.960;8.372;2023-01-15T09:55:24;9.20;99.90
20288;DHT22;10303;51.960;8.372;2023-01-15T09:57:57;9.20;99.90
20288;DHT22;10303;51.960;8.372;2023-01-15T10:00:29;9.10;99.90
20288;DHT22;10303;51.960;8.372;2023-01-15T10:08:44;8.90;99.90
20288;DHT22;10303;51.960;8.372;2023-01-15T10:14:05;9.10;99.90
20288;DHT22;10303;51.960;8.372;2023-01-15T10:16:36;9.20;99.90
20288;DHT22;10303;51.960;8.372;2023-01-15T10:19:02;9.30;99.90
20288;DHT22;10303;51.960;8.372;2023-01-15T10:24:37;9.60;99.90
20288;DHT22;10303;51.960;8.372;2023-01-15T10:27:25;9.50;99.90
20288;DHT22;10303;51.960;8.372;2023-01-15T10:30:33;9.70;99.90
20288;DHT22;10303;51.960;8.372;2023-01-15T10:45:14;9.90;99.90
20288;DHT22;10303;51.960;8.372;2023-01-15T10:47:42;10.00;99.90
20288;DHT22;10303;51.960;8.372;2023-01-15T10:50:21;10.00;99.90
20288;DHT22;10303;51.960;8.372;2023-01-15T10:52:56;10.10;99.90
20288;DHT22;10303;51.960;8.372;2023-01-15T10:55:56;10.10;99.90
20288;DHT22;10303;51.960;8.372;2023-01-15T10:58:46;10.30;99.90
20288;DHT22;10303;51.960;8.372;2023-01-15T11:01:20;10.30;99.90
20288;DHT22;10303;51.960;8.372;2023-01-15T11:03:51;10.40;99.90
20288;DHT22;10303;51.960;8.372;2023-01-15T11:06:22;10.20;99.90
20288;DHT22;10303;51.960;8.372;2023-01-15T11:08:52;10.30;99.90
20288;DHT22;10303;51.960;8.372;2023-01-15T11:11:40;10.30;99.90
20288;DHT22;10303;51.960;8.372;2023-01-15T11:14:51;10.10;99.90
20288;DHT22;10303;51.960;8.372;2023-01-15T11:17:40;10.20;99.90
20288;DHT22;10303;51.960;8.372;2023-01-15T11:20:33;10.40;99.90
20288;DHT22;10303;51.960;8.372;2023-01-15T11:23:10;10.60;99.90
20288;DHT22;10303;51.960;8.372;2023-01-15T11:25:46;10.80;99.90
20288;DHT22;10303;51.960;8.372;2023-01-15T11:28:39;11.10;99.90
20288;DHT22;10303;51.960;8.372;2023-01-15T11:31:09;10.50;99.90
20288;DHT22;10303;51.960;8.372;2023-01-15T11:33:37;10.90;99.90
20288;DHT22;10303;51.960;8.372;2023-01-15T11:36:06;10.80;99.90
20288;DHT22;10303;51.960;8.372;2023-01-15T11:38:46;10.90;99.90
20288;DHT22;10303;51.960;8.372;2023-01-15T11:44:18;10.90;99.90
20288;DHT22;10303;51.960;8.372;2023-01-15T11:47:09;10.70;99.90
20288;DHT22;10303;51.960;8.372;2023-01-15T11:50:00;10.40;99.90
20288;DHT22;10303;51.960;8.372;2023-01-15T11:52:46;10.50;99.90
20288;DHT22;10303;51.960;8.372;2023-01-15T11:55:18;10.30;99.90
20288;DHT22;10303;51.960;8.372;2023-01-15T11:57:48;10.40;99.90
20288;DHT22;10303;51.960;8.372;2023-01-15T12:00:31;10.60;99.90
20288;DHT22;10303;51.960;8.372;2023-01-15T12:03:10;10.70;99.90
20288;DHT22;10303;51.960;8.372;2023-01-15T12:05:46;10.80;99.90
20288;DHT22;10303;51.960;8.372;2023-01-15T12:08:29;10.70;99.90
20288;DHT22;10303;51.960;8.372;2023-01-15T12:11:34;10.50;99.90
20288;DHT22;10303;51.960;8.372;2023-01-15T12:14:31;10.50;99.90
20288;DHT22;10303;51.960;8.372;2023-01-15T12:17:34;10.30;99.90
20288;DHT22;10303;51.960;8.372;2023-01-15T12:20:28;10.10;99.90
20288;DHT22;10303;51.960;8.372;2023-01-15T12:29:04;10.10;99.90
20288;DHT22;10303;51.960;8.372;2023-01-15T12:31:49;10.10;99.90
20288;DHT22;10303;51.960;8.372;2023-01-15T12:34:28;10.10;99.90
20288;DHT22;10303;51.960;8.372;2023-01-15T12:37:04;9.90;99.90
20288;DHT22;10303;51.960;8.372;2023-01-15T12:39:43;10.10;99.90
20288;DHT22;10303;51.960;8.372;2023-01-15T12:42:16;10.10;99.90
20288;DHT22;10303;51.960;8.372;2023-01-15T12:45:11;10.00;99.90
20288;DHT22;10303;51.960;8.372;2023-01-15T12:58:55;10.00;99.90
20288;DHT22;10303;51.960;8.372;2023-01-15T13:01:33;10.00;99.90
20288;DHT22;10303;51.960;8.372;2023-01-15T13:04:20;10.10;99.90
20288;DHT22;10303;51.960;8.372;2023-01-15T13:07:02;10.00;99.90
20288;DHT22;10303;51.960;8.372;2023-01-15T13:09:43;9.70;99.90
20288;DHT22;10303;51.960;8.372;2023-01-15T13:12:15;9.70;99.90
20288;DHT22;10303;51.960;8.372;2023-01-15T13:14:42;9.70;99.90
20288;DHT22;10303;51.960;8.372;2023-01-15T13:17:53;9.80;99.90
20288;DHT22;10303;51.960;8.372;2023-01-15T13:20:43;9.70;99.90
20288;DHT22;10303;51.960;8.372;2023-01-15T13:32:01;9.70;99.90
20288;DHT22;10303;51.960;8.372;2023-01-15T13:37:41;9.60;99.90
20288;DHT22;10303;51.960;8.372;2023-01-15T13:40:29;9.80;99.90
20288;DHT22;10303;51.960;8.372;2023-01-15T13:43:00;9.70;99.90
20288;DHT22;10303;51.960;8.372;2023-01-15T13:45:35;9.80;99.90
20288;DHT22;10303;51.960;8.372;2023-01-15T13:50:53;10.00;99.90
20288;DHT22;10303;51.960;8.372;2023-01-15T13:53:36;10.00;99.90
20288;DHT22;10303;51.960;8.372;2023-01-15T13:56:10;9.80;99.90
20288;DHT22;10303;51.960;8.372;2023-01-15T13:58:52;9.90;99.90
20288;DHT22;10303;51.960;8.372;2023-01-15T14:06:48;10.00;99.90
20288;DHT22;10303;51.960;8.372;2023-01-15T14:12:09;9.60;99.90
20288;DHT22;10303;51.960;8.372;2023-01-15T14:17:28;9.50;99.90
20288;DHT22;10303;51.960;8.372;2023-01-15T14:20:03;9.50;99.90
20288;DHT22;10303;51.960;8.372;2023-01-15T14:36:29;9.60;99.90
20288;DHT22;10303;51.960;8.372;2023-01-15T14:39:24;9.60;99.90
20288;DHT22;10303;51.960;8.372;2023-01-15T14:50:39;9.60;99.90
20288;DHT22;10303;51.960;8.372;2023-01-15T14:59:08;9.60;99.90
20288;DHT22;10303;51.960;8.372;2023-01-15T15:04:43;9.90;99.90
20288;DHT22;10303;51.960;8.372;2023-01-15T15:09:47;9.60;99.90
20288;DHT22;10303;51.960;8.372;2023-01-15T15:18:01;9.50;99.90
20288;DHT22;10303;51.960;8.372;2023-01-15T15:23:41;9.50;99.90
20288;DHT22;10303;51.960;8.372;2023-01-15T15:26:27;9.50;99.90
20288;DHT22;10303;51.960;8.372;2023-01-15T15:29:00;9.70;99.90
20288;DHT22;10303;51.960;8.372;2023-01-15T15:31:40;9.80;99.90
20288;DHT22;10303;51.960;8.372;2023-01-15T15:34:29;9.80;99.90
20288;DHT22;10303;51.960;8.372;2023-01-15T15:36:58;9.70;99.90
20288;DHT22;10303;51.960;8.372;2023-01-15T15:42:38;9.80;99.90
20288;DHT22;10303;51.960;8.372;2023-01-15T15:45:28;9.70;99.90
20288;DHT22;10303;51.960;8.372;2023-01-15T15:48:30;9.70;99.90
20288;DHT22;10303;51.960;8.372;2023-01-15T15:54:05;9.70;99.90
20288;DHT22;10303;51.960;8.372;2023-01-15T15:56:38;9.50;99.90
20288;DHT22;10303;51.960;8.372;2023-01-15T15:59:19;9.60;99.90
20288;DHT22;10303;51.960;8.372;2023-01-15T16:04:53;9.80;99.90
20288;DHT22;10303;51.960;8.372;2023-01-15T16:07:26;9.80;99.90
20288;DHT22;10303;51.960;8.372;2023-01-15T16:10:30;9.60;99.90
20288;DHT22;10303;51.960;8.372;2023-01-15T16:12:59;9.70;99.90
20288;DHT22;10303;51.960;8.372;2023-01-15T16:15:33;9.80;99.90
20288;DHT22;10303;51.960;8.372;2023-01-15T16:18:04;9.90;99.90
20288;DHT22;10303;51.960;8.372;2023-01-15T16:20:32;9.80;99.90
20288;DHT22;10303;51.960;8.372;2023-01-15T16:23:00;9.80;99.90
20288;DHT22;10303;51.960;8.372;2023-01-15T16:25:37;9.80;99.90
20288;DHT22;10303;51.960;8.372;2023-01-15T16:28:16;9.80;99.90
20288;DHT22;10303;51.960;8.372;2023-01-15T16:30:59;9.70;99.90
20288;DHT22;10303;51.960;8.372;2023-01-15T16:33:27;9.70;99.90
20288;DHT22;10303;51.960;8.372;2023-01-15T16:35:58;9.70;99.90
20288;DHT22;10303;51.960;8.372;2023-01-15T16:38:31;9.70;99.90
20288;DHT22;10303;51.960;8.372;2023-01-15T16:40:59;9.80;99.90
20288;DHT22;10303;51.960;8.372;2023-01-15T16:43:27;9.90;99.90
20288;DHT22;10303;51.960;8.372;2023-01-15T16:46:16;9.80;99.90
20288;DHT22;10303;51.960;8.372;2023-01-15T16:48:44;9.90;99.90
20288;DHT22;10303;51.960;8.372;2023-01-15T16:54:01;9.70;99.90
20288;DHT22;10303;51.960;8.372;2023-01-15T16:58:59;9.60;99.90
20288;DHT22;10303;51.960;8.372;2023-01-15T17:01:36;9.70;99.90
20288;DHT22;10303;51.960;8.372;2023-01-15T17:04:29;9.60;99.90
20288;DHT22;10303;51.960;8.372;2023-01-15T17:09:32;9.60;99.90
20288;DHT22;10303;51.960;8.372;2023-01-15T17:12:14;9.70;99.90
20288;DHT22;10303;51.960;8.372;2023-01-15T17:17:50;9.60;99.90
20288;DHT22;10303;51.960;8.372;2023-01-15T17:20:19;9.60;99.90
20288;DHT22;10303;51.960;8.372;2023-01-15T17:22:51;9.60;99.90
20288;DHT22;10303;51.960;8.372;2023-01-15T17:25:31;9.60;99.90
20288;DHT22;10303;51.960;8.372;2023-01-15T17:28:01;9.50;99.90
20288;DHT22;10303;51.960;8.372;2023-01-15T17:30:29;9.60;99.90
20288;DHT22;10303;51.960;8.372;2023-01-15T17:32:56;9.60;99.90
20288;DHT22;10303;51.960;8.372;2023-01-15T17:35:29;9.40;99.90
20288;DHT22;10303;51.960;8.372;2023-01-15T17:37:56;9.60;99.90
20288;DHT22;10303;51.960;8.372;2023-01-15T17:40:22;9.70;99.90
20288;DHT22;10303;51.960;8.372;2023-01-15T17:42:49;9.60;99.90
20288;DHT22;10303;51.960;8.372;2023-01-15T17:45:20;9.40;99.90
20288;DHT22;10303;51.960;8.372;2023-01-15T17:47:51;9.40;99.90
20288;DHT22;10303;51.960;8.372;2023-01-15T17:50:17;9.30;99.90
20288;DHT22;10303;51.960;8.372;2023-01-15T17:52:44;9.30;99.90
20288;DHT22;10303;51.960;8.372;2023-01-15T17:55:15;9.40;99.90
20288;DHT22;10303;51.960;8.372;2023-01-15T17:58:10;9.40;99.90
20288;DHT22;10303;51.960;8.372;2023-01-15T18:00:56;9.50;99.90
20288;DHT22;10303;51.960;8.372;2023-01-15T18:03:46;9.20;99.90
20288;DHT22;10303;51.960;8.372;2023-01-15T18:06:33;9.30;99.90
20288;DHT22;10303;51.960;8.372;2023-01-15T18:09:02;9.20;99.90
20288;DHT22;10303;51.960;8.372;2023-01-15T18:11:31;9.40;99.90
20288;DHT22;10303;51.960;8.372;2023-01-15T18:13:57;9.50;99.90
20288;DHT22;10303;51.960;8.372;2023-01-15T18:16:23;9.60;99.90
20288;DHT22;10303;51.960;8.372;2023-01-15T18:18:54;9.40;99.90
20288;DHT22;10303;51.960;8.372;2023-01-15T18:21:20;9.30;99.90
20288;DHT22;10303;51.960;8.372;2023-01-15T18:23:46;9.40;99.90
20288;DHT22;10303;51.960;8.372;2023-01-15T18:26:13;9.40;99.90
20288;DHT22;10303;51.960;8.372;2023-01-15T18:28:39;9.50;99.90
20288;DHT22;10303;51.960;8.372;2023-01-15T18:31:05;9.40;99.90
20288;DHT22;10303;51.960;8.372;2023-01-15T18:33:32;9.50;99.90
20288;DHT22;10303;51.960;8.372;2023-01-15T18:36:09;9.70;99.90
20288;DHT22;10303;51.960;8.372;2023-01-15T18:38:39;9.50;99.90
20288;DHT22;10303;51.960;8.372;2023-01-15T18:41:13;9.60;99.90
20288;DHT22;10303;51.960;8.372;2023-01-15T18:44:12;9.70;99.90
20288;DHT22;10303;51.960;8.372;2023-01-15T18:47:00;9.80;99.90
20288;DHT22;10303;51.960;8.372;2023-01-15T18:49:29;10.00;99.90
20288;DHT22;10303;51.960;8.372;2023-01-15T18:51:55;9.80;99.90
20288;DHT22;10303;51.960;8.372;2023-01-15T18:54:40;9.80;99.90
20288;DHT22;10303;51.960;8.372;2023-01-15T18:57:06;9.90;99.90
20288;DHT22;10303;51.960;8.372;2023-01-15T18:59:32;9.90;99.90
20288;DHT22;10303;51.960;8.372;2023-01-15T19:01:58;9.80;99.90
20288;DHT22;10303;51.960;8.372;2023-01-15T19:04:25;9.90;99.90